createdAt,value
2018-05-24T00:00:57.690Z,0.00
2018-05-24T00:01:57.597Z,0.00
2018-05-24T00:02:57.505Z,0.00
2018-05-24T00:03:57.402Z,0.00
2018-05-24T00:04:57.311Z,0.00
2018-05-24T00:05:57.221Z,0.00
2018-05-24T00:06:57.121Z,0.00
2018-05-24T00:07:57.128Z,0.00
2018-05-24T00:08:56.922Z,0.00
2018-05-24T00:09:56.831Z,0.00
2018-05-24T00:10:56.742Z,0.00
2018-05-24T00:11:56.638Z,0.00
2018-05-24T00:12:56.547Z,0.00
2018-05-24T00:13:56.444Z,0.00
2018-05-24T00:14:56.353Z,0.00
2018-05-24T00:15:56.261Z,0.00
2018-05-24T00:16:56.158Z,0.00
2018-05-24T00:17:56.069Z,0.00
2018-05-24T00:18:55.976Z,0.00
2018-05-24T00:19:55.874Z,0.00
2018-05-24T00:20:55.782Z,0.00
2018-05-24T00:21:55.680Z,0.00
2018-05-24T00:22:55.601Z,0.00
2018-05-24T00:23:55.498Z,0.00
2018-05-24T00:24:55.395Z,0.00
2018-05-24T00:25:55.303Z,0.00
2018-05-24T00:26:55.200Z,0.00
2018-05-24T00:27:55.109Z,0.00
2018-05-24T00:28:55.018Z,0.00
2018-05-24T00:29:54.915Z,0.00
2018-05-24T00:30:54.826Z,0.00
2018-05-24T00:31:54.720Z,0.00
2018-05-24T00:32:54.629Z,0.00
2018-05-24T00:33:54.539Z,0.00
2018-05-24T00:34:54.435Z,0.00
2018-05-24T00:35:54.344Z,0.00
2018-05-24T00:36:54.243Z,0.00
2018-05-24T00:37:54.151Z,0.00
2018-05-24T00:38:54.071Z,0.00
2018-05-24T00:39:53.956Z,0.00
2018-05-24T00:40:53.866Z,0.00
2018-05-24T00:41:53.763Z,0.00
2018-05-24T00:42:53.670Z,0.00
2018-05-24T00:43:53.582Z,0.00
2018-05-24T00:44:53.477Z,0.00
2018-05-24T00:45:53.387Z,0.00
2018-05-24T00:46:53.283Z,0.00
2018-05-24T00:47:53.194Z,0.00
2018-05-24T00:48:53.102Z,0.00
2018-05-24T00:49:53.012Z,0.00
2018-05-24T00:50:52.908Z,0.00
2018-05-24T00:51:52.804Z,0.00
2018-05-24T00:52:52.713Z,0.00
2018-05-24T00:53:52.622Z,0.00
2018-05-24T00:54:52.519Z,0.00
2018-05-24T00:55:52.430Z,0.00
2018-05-24T00:56:52.324Z,0.00
2018-05-24T00:57:52.235Z,0.00
2018-05-24T00:58:52.133Z,0.00
2018-05-24T00:59:52.039Z,0.00
2018-05-24T01:00:51.950Z,0.00
2018-05-24T01:01:51.847Z,0.00
2018-05-24T01:02:51.757Z,0.00
2018-05-24T01:03:51.665Z,0.00
2018-05-24T01:04:51.561Z,0.00
2018-05-24T01:05:51.720Z,0.00
2018-05-24T01:06:51.367Z,0.00
2018-05-24T01:07:51.278Z,0.00
2018-05-24T01:08:51.173Z,0.00
2018-05-24T01:09:51.081Z,0.00
2018-05-24T01:10:50.979Z,0.00
2018-05-24T01:11:50.891Z,0.00
2018-05-24T01:12:50.799Z,0.00
2018-05-24T01:13:50.693Z,0.00
2018-05-24T01:14:50.602Z,0.00
2018-05-24T01:15:50.568Z,0.00
2018-05-24T01:16:50.415Z,0.00
2018-05-24T01:17:50.319Z,0.00
2018-05-24T01:18:50.215Z,0.00
2018-05-24T01:19:50.127Z,0.00
2018-05-24T01:20:50.020Z,0.00
2018-05-24T01:21:49.930Z,0.00
2018-05-24T01:22:49.827Z,0.00
2018-05-24T01:23:49.737Z,0.00
2018-05-24T01:24:49.647Z,0.00
2018-05-24T01:25:49.792Z,0.00
2018-05-24T01:26:49.450Z,0.00
2018-05-24T01:27:49.347Z,0.00
2018-05-24T01:28:49.257Z,0.00
2018-05-24T01:29:49.156Z,0.00
2018-05-24T01:30:49.062Z,0.00
2018-05-24T01:31:48.973Z,0.00
2018-05-24T01:32:48.873Z,0.00
2018-05-24T01:33:48.789Z,0.00
2018-05-24T01:34:48.674Z,0.00
2018-05-24T01:35:48.588Z,0.00
2018-05-24T01:36:48.492Z,0.00
2018-05-24T01:37:48.392Z,0.00
2018-05-24T01:38:48.299Z,0.00
2018-05-24T01:39:48.196Z,0.00
2018-05-24T01:40:48.104Z,0.00
2018-05-24T01:41:48.008Z,0.00
2018-05-24T01:42:47.910Z,0.00
2018-05-24T01:43:47.809Z,0.00
2018-05-24T01:44:47.716Z,0.00
2018-05-24T01:45:47.626Z,0.00
2018-05-24T01:46:47.522Z,0.00
2018-05-24T01:47:47.431Z,0.00
2018-05-24T01:48:47.329Z,0.00
2018-05-24T01:49:47.243Z,0.00
2018-05-24T01:50:47.135Z,0.00
2018-05-24T01:51:47.042Z,0.00
2018-05-24T01:52:46.956Z,0.00
2018-05-24T01:53:46.849Z,0.00
2018-05-24T01:54:46.759Z,0.00
2018-05-24T01:55:46.654Z,0.00
2018-05-24T01:56:46.564Z,0.00
2018-05-24T01:57:46.460Z,0.00
2018-05-24T01:58:46.383Z,0.00
2018-05-24T01:59:46.280Z,0.00
2018-05-24T02:00:46.180Z,0.00
2018-05-24T02:01:46.088Z,0.00
2018-05-24T02:02:45.982Z,0.00
2018-05-24T02:03:45.891Z,0.00
2018-05-24T02:04:45.870Z,0.00
2018-05-24T02:05:45.989Z,0.00
2018-05-24T02:06:45.595Z,0.00
2018-05-24T02:07:45.517Z,0.00
2018-05-24T02:08:45.401Z,0.00
2018-05-24T02:09:45.311Z,0.00
2018-05-24T02:10:45.206Z,0.00
2018-05-24T02:11:45.115Z,0.00
2018-05-24T02:12:45.023Z,0.00
2018-05-24T02:13:44.920Z,0.00
2018-05-24T02:14:44.830Z,0.00
2018-05-24T02:15:44.727Z,0.00
2018-05-24T02:16:44.635Z,0.00
2018-05-24T02:17:44.532Z,0.00
2018-05-24T02:18:44.441Z,0.00
2018-05-24T02:19:44.339Z,0.00
2018-05-24T02:20:44.247Z,0.00
2018-05-24T02:21:44.145Z,0.00
2018-05-24T02:22:44.054Z,0.00
2018-05-24T02:23:44.017Z,0.00
2018-05-24T02:24:43.861Z,0.00
2018-05-24T02:25:43.769Z,0.00
2018-05-24T02:26:43.666Z,0.00
2018-05-24T02:27:43.574Z,0.00
2018-05-24T02:28:43.473Z,0.00
2018-05-24T02:29:43.380Z,0.00
2018-05-24T02:30:43.278Z,0.00
2018-05-24T02:31:43.190Z,0.00
2018-05-24T02:32:43.084Z,0.00
2018-05-24T02:33:42.992Z,0.00
2018-05-24T02:34:42.902Z,0.00
2018-05-24T02:35:42.808Z,0.00
2018-05-24T02:36:42.710Z,0.00
2018-05-24T02:37:42.605Z,0.00
2018-05-24T02:38:42.513Z,0.00
2018-05-24T02:39:42.410Z,0.00
2018-05-24T02:40:42.319Z,0.00
2018-05-24T02:41:42.216Z,0.00
2018-05-24T02:42:42.124Z,0.00
2018-05-24T02:43:42.028Z,0.00
2018-05-24T02:44:41.930Z,0.00
2018-05-24T02:45:41.828Z,0.00
2018-05-24T02:46:41.736Z,0.00
2018-05-24T02:47:41.635Z,0.00
2018-05-24T02:48:41.542Z,0.00
2018-05-24T02:49:41.440Z,5.63
2018-05-24T02:50:41.361Z,5.63
2018-05-24T02:51:41.260Z,5.63
2018-05-24T02:52:41.156Z,5.63
2018-05-24T02:53:41.063Z,5.63
2018-05-24T02:54:40.960Z,5.63
2018-05-24T02:55:40.870Z,5.63
2018-05-24T02:56:40.767Z,5.63
2018-05-24T02:57:40.675Z,5.63
2018-05-24T02:58:40.571Z,5.63
2018-05-24T02:59:40.481Z,11.25
2018-05-24T03:00:40.378Z,11.25
2018-05-24T03:01:40.412Z,11.25
2018-05-24T03:02:40.183Z,11.25
2018-05-24T03:03:40.092Z,11.25
2018-05-24T03:04:39.992Z,11.25
2018-05-24T03:05:40.148Z,16.88
2018-05-24T03:06:39.795Z,16.88
2018-05-24T03:07:39.704Z,16.88
2018-05-24T03:08:39.616Z,16.88
2018-05-24T03:09:39.511Z,22.50
2018-05-24T03:10:39.407Z,22.50
2018-05-24T03:11:39.316Z,22.50
2018-05-24T03:12:39.225Z,28.13
2018-05-24T03:13:39.121Z,28.13
2018-05-24T03:14:39.027Z,28.13
2018-05-24T03:15:38.929Z,33.75
2018-05-24T03:16:38.849Z,33.75
2018-05-24T03:17:38.733Z,39.38
2018-05-24T03:18:38.644Z,39.38
2018-05-24T03:19:38.540Z,39.38
2018-05-24T03:20:38.448Z,45.00
2018-05-24T03:21:38.344Z,45.00
2018-05-24T03:22:38.258Z,50.63
2018-05-24T03:23:38.155Z,50.63
2018-05-24T03:24:38.060Z,50.63
2018-05-24T03:25:38.207Z,56.25
2018-05-24T03:26:37.866Z,56.25
2018-05-24T03:27:37.763Z,61.88
2018-05-24T03:28:37.671Z,61.88
2018-05-24T03:29:37.568Z,67.50
2018-05-24T03:30:37.781Z,67.50
2018-05-24T03:31:37.375Z,73.13
2018-05-24T03:32:37.284Z,73.13
2018-05-24T03:33:37.181Z,78.75
2018-05-24T03:34:37.091Z,84.38
2018-05-24T03:35:36.987Z,84.38
2018-05-24T03:36:36.895Z,84.38
2018-05-24T03:37:36.796Z,84.38
2018-05-24T03:38:36.702Z,90.00
2018-05-24T03:39:36.611Z,95.63
2018-05-24T03:40:36.507Z,95.63
2018-05-24T03:41:36.417Z,106.88
2018-05-24T03:42:36.313Z,106.88
2018-05-24T03:43:36.221Z,112.50
2018-05-24T03:44:36.119Z,112.50
2018-05-24T03:45:36.028Z,112.50
2018-05-24T03:46:35.927Z,118.13
2018-05-24T03:47:35.834Z,118.13
2018-05-24T03:48:35.731Z,123.75
2018-05-24T03:49:35.640Z,129.38
2018-05-24T03:50:35.837Z,135.00
2018-05-24T03:51:35.451Z,135.00
2018-05-24T03:52:35.355Z,135.00
2018-05-24T03:53:35.252Z,135.00
2018-05-24T03:54:35.160Z,135.00
2018-05-24T03:55:35.057Z,135.00
2018-05-24T03:56:34.967Z,140.63
2018-05-24T03:57:34.870Z,129.38
2018-05-24T03:58:34.772Z,135.00
2018-05-24T03:59:34.683Z,135.00
2018-05-24T04:00:34.579Z,135.00
2018-05-24T04:01:34.487Z,135.00
2018-05-24T04:02:34.384Z,135.00
2018-05-24T04:03:34.293Z,135.00
2018-05-24T04:04:34.190Z,140.63
2018-05-24T04:05:34.150Z,140.63
2018-05-24T04:06:34.009Z,146.25
2018-05-24T04:07:33.911Z,151.88
2018-05-24T04:08:33.848Z,146.25
2018-05-24T04:09:33.710Z,157.50
2018-05-24T04:10:33.621Z,163.13
2018-05-24T04:11:33.529Z,157.50
2018-05-24T04:12:33.425Z,157.50
2018-05-24T04:13:33.335Z,163.13
2018-05-24T04:14:33.233Z,163.13
2018-05-24T04:15:33.141Z,163.13
2018-05-24T04:16:33.039Z,163.13
2018-05-24T04:17:32.947Z,163.13
2018-05-24T04:18:32.857Z,163.13
2018-05-24T04:19:32.752Z,168.75
2018-05-24T04:20:32.663Z,168.75
2018-05-24T04:21:32.559Z,168.75
2018-05-24T04:22:32.470Z,168.75
2018-05-24T04:23:32.377Z,168.75
2018-05-24T04:24:32.286Z,180.00
2018-05-24T04:25:32.182Z,180.00
2018-05-24T04:26:32.093Z,185.63
2018-05-24T04:27:31.989Z,202.50
2018-05-24T04:28:31.898Z,202.50
2018-05-24T04:29:31.795Z,196.88
2018-05-24T04:30:31.705Z,191.25
2018-05-24T04:31:31.613Z,202.50
2018-05-24T04:32:31.509Z,196.88
2018-05-24T04:33:31.420Z,219.38
2018-05-24T04:34:31.328Z,225.00
2018-05-24T04:35:31.225Z,236.25
2018-05-24T04:36:31.134Z,236.25
2018-05-24T04:37:31.043Z,247.50
2018-05-24T04:38:30.939Z,247.50
2018-05-24T04:39:30.850Z,264.38
2018-05-24T04:40:30.758Z,270.00
2018-05-24T04:41:30.654Z,264.38
2018-05-24T04:42:30.564Z,275.63
2018-05-24T04:43:30.476Z,286.88
2018-05-24T04:44:30.371Z,281.25
2018-05-24T04:45:30.356Z,292.50
2018-05-24T04:46:30.188Z,286.88
2018-05-24T04:47:30.084Z,298.13
2018-05-24T04:48:29.994Z,315.00
2018-05-24T04:49:29.903Z,309.38
2018-05-24T04:50:29.813Z,320.63
2018-05-24T04:51:29.710Z,315.00
2018-05-24T04:52:29.618Z,320.63
2018-05-24T04:53:29.517Z,326.25
2018-05-24T04:54:29.424Z,320.63
2018-05-24T04:55:29.333Z,348.75
2018-05-24T04:56:29.243Z,354.38
2018-05-24T04:57:29.152Z,354.38
2018-05-24T04:58:29.048Z,360.00
2018-05-24T04:59:28.959Z,365.63
2018-05-24T05:00:29.116Z,376.88
2018-05-24T05:01:28.776Z,388.13
2018-05-24T05:02:28.674Z,393.75
2018-05-24T05:03:28.582Z,405.00
2018-05-24T05:04:28.493Z,410.63
2018-05-24T05:05:28.400Z,421.88
2018-05-24T05:06:28.311Z,427.50
2018-05-24T05:07:28.207Z,416.25
2018-05-24T05:08:28.115Z,405.00
2018-05-24T05:09:28.024Z,433.13
2018-05-24T05:10:27.934Z,427.50
2018-05-24T05:11:27.831Z,410.63
2018-05-24T05:12:27.743Z,393.75
2018-05-24T05:13:27.653Z,365.63
2018-05-24T05:14:27.583Z,360.00
2018-05-24T05:15:27.467Z,365.63
2018-05-24T05:16:27.363Z,376.88
2018-05-24T05:17:27.274Z,399.38
2018-05-24T05:18:27.182Z,438.75
2018-05-24T05:19:27.176Z,478.13
2018-05-24T05:20:26.990Z,483.75
2018-05-24T05:21:26.897Z,540.00
2018-05-24T05:22:26.806Z,517.50
2018-05-24T05:23:26.740Z,556.88
2018-05-24T05:24:26.631Z,573.75
2018-05-24T05:25:26.772Z,585.00
2018-05-24T05:26:26.431Z,630.00
2018-05-24T05:27:26.340Z,635.63
2018-05-24T05:28:26.250Z,573.75
2018-05-24T05:29:26.159Z,523.13
2018-05-24T05:30:26.056Z,472.50
2018-05-24T05:31:25.964Z,472.50
2018-05-24T05:32:25.873Z,455.63
2018-05-24T05:33:25.796Z,472.50
2018-05-24T05:34:25.692Z,500.63
2018-05-24T05:35:25.601Z,517.50
2018-05-24T05:36:25.507Z,663.75
2018-05-24T05:37:25.408Z,596.25
2018-05-24T05:38:25.316Z,528.75
2018-05-24T05:39:25.227Z,545.63
2018-05-24T05:40:25.136Z,646.88
2018-05-24T05:41:25.045Z,663.75
2018-05-24T05:42:24.952Z,646.88
2018-05-24T05:43:24.850Z,596.25
2018-05-24T05:44:24.759Z,669.38
2018-05-24T05:45:24.967Z,618.75
2018-05-24T05:46:24.578Z,534.38
2018-05-24T05:47:24.487Z,545.63
2018-05-24T05:48:24.385Z,573.75
2018-05-24T05:49:24.293Z,500.63
2018-05-24T05:50:24.203Z,450.00
2018-05-24T05:51:24.112Z,472.50
2018-05-24T05:52:24.020Z,500.63
2018-05-24T05:53:23.930Z,511.88
2018-05-24T05:54:23.826Z,506.25
2018-05-24T05:55:23.734Z,545.63
2018-05-24T05:56:23.644Z,551.25
2018-05-24T05:57:23.553Z,601.88
2018-05-24T05:58:23.463Z,601.88
2018-05-24T05:59:23.371Z,573.75
2018-05-24T06:00:23.269Z,607.50
2018-05-24T06:01:23.183Z,663.75
2018-05-24T06:02:23.087Z,736.88
2018-05-24T06:03:23.001Z,877.50
2018-05-24T06:04:22.904Z,1035.00
2018-05-24T06:05:22.815Z,1051.88
2018-05-24T06:06:22.712Z,1057.50
2018-05-24T06:07:22.620Z,911.25
2018-05-24T06:08:22.530Z,720.00
2018-05-24T06:09:22.438Z,613.13
2018-05-24T06:10:22.348Z,765.00
2018-05-24T06:11:22.257Z,826.88
2018-05-24T06:12:22.166Z,765.00
2018-05-24T06:13:22.075Z,551.25
2018-05-24T06:14:21.972Z,540.00
2018-05-24T06:15:21.907Z,545.63
2018-05-24T06:16:21.791Z,534.38
2018-05-24T06:17:21.699Z,556.88
2018-05-24T06:18:21.611Z,590.63
2018-05-24T06:19:21.518Z,646.88
2018-05-24T06:20:21.450Z,652.50
2018-05-24T06:21:21.337Z,759.38
2018-05-24T06:22:21.245Z,781.88
2018-05-24T06:23:21.159Z,697.50
2018-05-24T06:24:21.064Z,810.00
2018-05-24T06:25:20.960Z,770.63
2018-05-24T06:26:20.870Z,770.63
2018-05-24T06:27:20.779Z,691.88
2018-05-24T06:28:20.735Z,821.25
2018-05-24T06:29:20.597Z,804.38
2018-05-24T06:30:20.508Z,821.25
2018-05-24T06:31:20.417Z,691.88
2018-05-24T06:32:20.326Z,669.38
2018-05-24T06:33:20.247Z,562.50
2018-05-24T06:34:20.144Z,506.25
2018-05-24T06:35:20.040Z,500.63
2018-05-24T06:36:19.949Z,495.00
2018-05-24T06:37:19.905Z,528.75
2018-05-24T06:38:19.780Z,500.63
2018-05-24T06:39:19.678Z,641.25
2018-05-24T06:40:19.836Z,759.38
2018-05-24T06:41:19.495Z,821.25
2018-05-24T06:42:19.404Z,1001.25
2018-05-24T06:43:19.315Z,1091.25
2018-05-24T06:44:19.210Z,1175.63
2018-05-24T06:45:19.119Z,877.50
2018-05-24T06:46:19.029Z,888.75
2018-05-24T06:47:18.938Z,1057.50
2018-05-24T06:48:18.847Z,1147.50
2018-05-24T06:49:18.758Z,1597.50
2018-05-24T06:50:18.665Z,2373.75
2018-05-24T06:51:18.574Z,2525.63
2018-05-24T06:52:18.483Z,2548.13
2018-05-24T06:53:18.394Z,2621.25
2018-05-24T06:54:18.311Z,2660.63
2018-05-24T06:55:18.214Z,2626.88
2018-05-24T06:56:18.121Z,2694.38
2018-05-24T06:57:18.029Z,2683.13
2018-05-24T06:58:17.939Z,2621.25
2018-05-24T06:59:17.847Z,2643.75
2018-05-24T07:00:18.009Z,2683.13
2018-05-24T07:01:17.662Z,2761.88
2018-05-24T07:02:17.579Z,2745.00
2018-05-24T07:03:17.485Z,2756.25
2018-05-24T07:04:17.406Z,2756.25
2018-05-24T07:05:17.323Z,2818.13
2018-05-24T07:06:17.224Z,2846.25
2018-05-24T07:07:17.134Z,2857.50
2018-05-24T07:08:17.043Z,2851.88
2018-05-24T07:09:16.952Z,2896.88
2018-05-24T07:10:16.864Z,2986.88
2018-05-24T07:11:16.782Z,2930.63
2018-05-24T07:12:16.692Z,2823.75
2018-05-24T07:13:16.602Z,2947.50
2018-05-24T07:14:16.511Z,2823.75
2018-05-24T07:15:16.434Z,2075.63
2018-05-24T07:16:16.344Z,1755.00
2018-05-24T07:17:16.254Z,2548.13
2018-05-24T07:18:16.160Z,2851.88
2018-05-24T07:19:16.082Z,3172.50
2018-05-24T07:20:15.991Z,3217.50
2018-05-24T07:21:15.900Z,3071.25
2018-05-24T07:22:15.816Z,2857.50
2018-05-24T07:23:15.731Z,2671.88
2018-05-24T07:24:15.639Z,2053.13
2018-05-24T07:25:15.553Z,1721.25
2018-05-24T07:26:15.471Z,1378.13
2018-05-24T07:27:15.380Z,1085.63
2018-05-24T07:28:15.290Z,1102.50
2018-05-24T07:29:15.198Z,1254.38
2018-05-24T07:30:15.121Z,1535.63
2018-05-24T07:31:15.037Z,1732.50
2018-05-24T07:32:14.939Z,1828.13
2018-05-24T07:33:14.848Z,1726.88
2018-05-24T07:34:14.773Z,2154.38
2018-05-24T07:35:14.682Z,2064.38
2018-05-24T07:36:14.588Z,1518.75
2018-05-24T07:37:14.497Z,1507.50
2018-05-24T07:38:14.419Z,1783.13
2018-05-24T07:39:14.328Z,2081.25
2018-05-24T07:40:14.241Z,1833.75
2018-05-24T07:41:14.148Z,1963.13
2018-05-24T07:42:14.056Z,1912.50
2018-05-24T07:43:13.966Z,1985.63
2018-05-24T07:44:13.887Z,2295.00
2018-05-24T07:45:13.825Z,2143.13
2018-05-24T07:46:13.708Z,1968.75
2018-05-24T07:47:13.616Z,2373.75
2018-05-24T07:48:13.523Z,1816.88
2018-05-24T07:49:13.432Z,1867.50
2018-05-24T07:50:13.353Z,2053.13
2018-05-24T07:51:13.264Z,2058.75
2018-05-24T07:52:13.172Z,2761.88
2018-05-24T07:53:13.083Z,2806.88
2018-05-24T07:54:12.990Z,2705.63
2018-05-24T07:55:12.901Z,2700.00
2018-05-24T07:56:12.814Z,3144.38
2018-05-24T07:57:12.730Z,2896.88
2018-05-24T07:58:12.640Z,3144.38
2018-05-24T07:59:12.549Z,2666.25
2018-05-24T08:00:12.459Z,2683.13
2018-05-24T08:01:12.365Z,2385.00
2018-05-24T08:02:12.277Z,1833.75
2018-05-24T08:03:12.199Z,1198.13
2018-05-24T08:04:12.107Z,821.25
2018-05-24T08:05:12.018Z,669.38
2018-05-24T08:06:11.926Z,568.13
2018-05-24T08:07:11.836Z,540.00
2018-05-24T08:08:11.745Z,517.50
2018-05-24T08:09:11.655Z,495.00
2018-05-24T08:10:11.562Z,472.50
2018-05-24T08:11:11.472Z,455.63
2018-05-24T08:12:11.382Z,450.00
2018-05-24T08:13:11.303Z,455.63
2018-05-24T08:14:11.212Z,455.63
2018-05-24T08:15:11.121Z,450.00
2018-05-24T08:16:11.032Z,455.63
2018-05-24T08:17:10.939Z,450.00
2018-05-24T08:18:10.851Z,450.00
2018-05-24T08:19:10.759Z,461.25
2018-05-24T08:20:10.668Z,506.25
2018-05-24T08:21:10.576Z,562.50
2018-05-24T08:22:10.486Z,663.75
2018-05-24T08:23:10.395Z,849.38
2018-05-24T08:24:10.305Z,1136.25
2018-05-24T08:25:10.213Z,2165.63
2018-05-24T08:26:10.122Z,3335.63
2018-05-24T08:27:10.031Z,3954.38
2018-05-24T08:28:09.941Z,4010.63
2018-05-24T08:29:09.862Z,4061.25
2018-05-24T08:30:09.759Z,4128.75
2018-05-24T08:31:09.668Z,4185.00
2018-05-24T08:32:09.578Z,4072.50
2018-05-24T08:33:09.489Z,4123.13
2018-05-24T08:34:09.395Z,4089.38
2018-05-24T08:35:09.324Z,4134.38
2018-05-24T08:36:09.202Z,4185.00
2018-05-24T08:37:09.126Z,4235.63
2018-05-24T08:38:09.086Z,4308.75
2018-05-24T08:39:08.930Z,4359.38
2018-05-24T08:40:08.840Z,4021.88
2018-05-24T08:41:08.753Z,3825.00
2018-05-24T08:42:08.656Z,4151.25
2018-05-24T08:43:08.568Z,4252.50
2018-05-24T08:44:08.475Z,4269.38
2018-05-24T08:45:08.384Z,4044.38
2018-05-24T08:46:08.293Z,3993.75
2018-05-24T08:47:08.240Z,4179.38
2018-05-24T08:48:08.112Z,4190.63
2018-05-24T08:49:08.022Z,4027.50
2018-05-24T08:50:07.943Z,4050.00
2018-05-24T08:51:07.852Z,4455.00
2018-05-24T08:52:07.761Z,4421.25
2018-05-24T08:53:07.670Z,4365.00
2018-05-24T08:54:07.580Z,4421.25
2018-05-24T08:55:07.501Z,4353.75
2018-05-24T08:56:07.410Z,4286.25
2018-05-24T08:57:07.320Z,4269.38
2018-05-24T08:58:07.242Z,4331.25
2018-05-24T08:59:07.150Z,4331.25
2018-05-24T09:00:07.060Z,4348.13
2018-05-24T09:01:06.982Z,4280.63
2018-05-24T09:02:06.890Z,4320.00
2018-05-24T09:03:06.811Z,4308.75
2018-05-24T09:04:06.723Z,4370.63
2018-05-24T09:05:06.631Z,4320.00
2018-05-24T09:06:06.552Z,4404.38
2018-05-24T09:07:06.462Z,4336.88
2018-05-24T09:08:06.384Z,4393.13
2018-05-24T09:09:06.388Z,4320.00
2018-05-24T09:10:06.214Z,4196.25
2018-05-24T09:11:06.123Z,4072.50
2018-05-24T09:12:06.050Z,4224.38
2018-05-24T09:13:05.956Z,4443.75
2018-05-24T09:14:05.877Z,4455.00
2018-05-24T09:15:05.785Z,4432.50
2018-05-24T09:16:05.707Z,4275.00
2018-05-24T09:17:05.616Z,3903.75
2018-05-24T09:18:05.551Z,2643.75
2018-05-24T09:19:05.463Z,3324.38
2018-05-24T09:20:05.415Z,3785.63
2018-05-24T09:21:05.290Z,4005.00
2018-05-24T09:22:05.208Z,3791.25
2018-05-24T09:23:05.121Z,4005.00
2018-05-24T09:24:05.031Z,4010.63
2018-05-24T09:25:04.953Z,4027.50
2018-05-24T09:26:04.862Z,3661.88
2018-05-24T09:27:04.782Z,3307.50
2018-05-24T09:28:04.704Z,2739.38
2018-05-24T09:29:04.618Z,2958.75
2018-05-24T09:30:04.536Z,3144.38
2018-05-24T09:31:04.444Z,2874.38
2018-05-24T09:32:04.366Z,3003.75
2018-05-24T09:33:04.276Z,3256.88
2018-05-24T09:34:04.197Z,3138.75
2018-05-24T09:35:04.105Z,3487.50
2018-05-24T09:36:04.040Z,3341.25
2018-05-24T09:37:03.937Z,3200.63
2018-05-24T09:38:03.859Z,3195.00
2018-05-24T09:39:03.769Z,3155.63
2018-05-24T09:40:03.691Z,3240.00
2018-05-24T09:41:03.599Z,2621.25
2018-05-24T09:42:03.536Z,2739.38
2018-05-24T09:43:03.429Z,3296.25
2018-05-24T09:44:03.339Z,3256.88
2018-05-24T09:45:03.260Z,3346.88
2018-05-24T09:46:03.169Z,3386.25
2018-05-24T09:47:03.091Z,3532.50
2018-05-24T09:48:03.001Z,1080.00
2018-05-24T09:49:02.910Z,4376.25
2018-05-24T09:50:02.831Z,4477.50
2018-05-24T09:51:02.741Z,4156.88
2018-05-24T09:52:02.663Z,4297.50
2018-05-24T09:53:02.573Z,4426.88
2018-05-24T09:54:02.492Z,4623.75
2018-05-24T09:55:02.405Z,4635.00
2018-05-24T09:56:02.324Z,4494.38
2018-05-24T09:57:02.233Z,4606.88
2018-05-24T09:58:02.155Z,4651.88
2018-05-24T09:59:02.064Z,4848.75
2018-05-24T10:00:01.986Z,4685.63
2018-05-24T10:01:01.895Z,4511.25
2018-05-24T10:02:01.820Z,4747.50
2018-05-24T10:03:01.728Z,1513.13
2018-05-24T10:04:01.648Z,4944.38
2018-05-24T10:05:01.573Z,5107.50
2018-05-24T10:06:01.478Z,4899.38
2018-05-24T10:07:01.399Z,4770.00
2018-05-24T10:08:01.309Z,4702.50
2018-05-24T10:09:01.231Z,4646.25
2018-05-24T10:10:01.153Z,4719.38
2018-05-24T10:11:01.062Z,4955.63
2018-05-24T10:12:00.996Z,4865.63
2018-05-24T10:13:00.893Z,4770.00
2018-05-24T10:14:00.813Z,4477.50
2018-05-24T10:15:00.736Z,1428.75
2018-05-24T10:16:00.645Z,3999.38
2018-05-24T10:17:00.566Z,1018.13
2018-05-24T10:18:00.489Z,3555.00
2018-05-24T10:19:00.398Z,4528.13
2018-05-24T10:20:00.319Z,4612.50
2018-05-24T10:21:00.241Z,4595.63
2018-05-24T10:22:00.150Z,4663.13
2018-05-24T10:23:00.071Z,781.88
2018-05-24T10:23:59.993Z,4972.50
2018-05-24T10:24:59.902Z,5011.88
2018-05-24T10:25:59.828Z,5045.63
2018-05-24T10:26:59.747Z,5169.38
2018-05-24T10:27:59.654Z,5265.00
2018-05-24T10:28:59.576Z,5197.50
2018-05-24T10:29:59.497Z,5118.75
2018-05-24T10:30:59.419Z,5231.25
2018-05-24T10:31:59.357Z,5208.75
2018-05-24T10:32:59.251Z,2373.75
2018-05-24T10:33:59.172Z,4477.50
2018-05-24T10:34:59.094Z,5956.88
2018-05-24T10:35:59.004Z,6519.38
2018-05-24T10:36:58.925Z,2655.00
2018-05-24T10:37:58.847Z,843.75
2018-05-24T10:38:58.768Z,6845.63
2018-05-24T10:39:58.941Z,7036.88
2018-05-24T10:40:58.611Z,7183.13
2018-05-24T10:41:58.521Z,7205.63
2018-05-24T10:42:58.443Z,7171.88
2018-05-24T10:43:58.365Z,7295.63
2018-05-24T10:44:58.286Z,720.00
2018-05-24T10:45:58.210Z,911.25
2018-05-24T10:46:58.134Z,4173.75
2018-05-24T10:47:58.051Z,7779.38
2018-05-24T10:48:57.960Z,7205.63
2018-05-24T10:49:57.882Z,7503.75
2018-05-24T10:50:57.817Z,7543.13
2018-05-24T10:51:57.716Z,6946.88
2018-05-24T10:52:57.637Z,5940.00
2018-05-24T10:53:57.556Z,900.00
2018-05-24T10:54:57.465Z,933.75
2018-05-24T10:55:57.407Z,1175.63
2018-05-24T10:56:57.308Z,1046.25
2018-05-24T10:57:57.219Z,781.88
2018-05-24T10:58:57.140Z,838.13
2018-05-24T10:59:57.063Z,860.63
2018-05-24T11:00:56.987Z,1625.63
2018-05-24T11:01:56.893Z,5045.63
2018-05-24T11:02:56.879Z,4691.25
2018-05-24T11:03:56.724Z,3105.00
2018-05-24T11:04:56.645Z,2075.63
2018-05-24T11:05:56.554Z,1957.50
2018-05-24T11:06:56.476Z,1895.63
2018-05-24T11:07:56.385Z,1839.38
2018-05-24T11:08:56.310Z,1766.25
2018-05-24T11:09:56.231Z,1755.00
2018-05-24T11:10:56.137Z,1715.63
2018-05-24T11:11:56.060Z,1681.88
2018-05-24T11:12:55.970Z,1693.13
2018-05-24T11:13:55.890Z,1743.75
2018-05-24T11:14:55.812Z,1906.88
2018-05-24T11:15:55.721Z,1755.00
2018-05-24T11:16:55.646Z,646.88
2018-05-24T11:17:55.567Z,1788.75
2018-05-24T11:18:55.475Z,1828.13
2018-05-24T11:19:55.395Z,1006.88
2018-05-24T11:20:55.317Z,1636.88
2018-05-24T11:21:55.226Z,1355.63
2018-05-24T11:22:55.153Z,1130.63
2018-05-24T11:23:55.069Z,1023.75
2018-05-24T11:24:54.979Z,888.75
2018-05-24T11:25:54.901Z,748.13
2018-05-24T11:26:54.822Z,652.50
2018-05-24T11:27:54.731Z,601.88
2018-05-24T11:28:54.652Z,585.00
2018-05-24T11:29:54.574Z,568.13
2018-05-24T11:30:54.485Z,624.38
2018-05-24T11:31:54.415Z,517.50
2018-05-24T11:32:54.328Z,545.63
2018-05-24T11:33:54.236Z,579.38
2018-05-24T11:34:54.145Z,596.25
2018-05-24T11:35:54.067Z,528.75
2018-05-24T11:36:53.980Z,461.25
2018-05-24T11:37:53.886Z,421.88
2018-05-24T11:38:53.807Z,405.00
2018-05-24T11:39:53.967Z,416.25
2018-05-24T11:40:53.626Z,371.25
2018-05-24T11:41:53.548Z,438.75
2018-05-24T11:42:53.456Z,551.25
2018-05-24T11:43:53.368Z,371.25
2018-05-24T11:44:53.287Z,331.88
2018-05-24T11:45:53.196Z,343.13
2018-05-24T11:46:53.109Z,365.63
2018-05-24T11:47:53.015Z,393.75
2018-05-24T11:48:52.935Z,376.88
2018-05-24T11:49:52.847Z,393.75
2018-05-24T11:50:52.757Z,348.75
2018-05-24T11:51:52.665Z,382.50
2018-05-24T11:52:52.573Z,1175.63
2018-05-24T11:53:52.496Z,3836.25
2018-05-24T11:54:52.406Z,5124.38
2018-05-24T11:55:52.314Z,5062.50
2018-05-24T11:56:52.222Z,4938.75
2018-05-24T11:57:52.131Z,4921.88
2018-05-24T11:58:52.046Z,4815.00
2018-05-24T11:59:52.212Z,4556.25
2018-05-24T12:00:51.870Z,4663.13
2018-05-24T12:01:51.855Z,4516.88
2018-05-24T12:02:51.689Z,3903.75
2018-05-24T12:03:51.600Z,1783.13
2018-05-24T12:04:51.521Z,506.25
2018-05-24T12:05:51.429Z,433.13
2018-05-24T12:06:51.339Z,393.75
2018-05-24T12:07:51.261Z,365.63
2018-05-24T12:08:51.172Z,360.00
2018-05-24T12:09:51.168Z,354.38
2018-05-24T12:10:51.001Z,343.13
2018-05-24T12:11:50.909Z,343.13
2018-05-24T12:12:50.831Z,343.13
2018-05-24T12:13:50.742Z,360.00
2018-05-24T12:14:50.662Z,461.25
2018-05-24T12:15:50.571Z,607.50
2018-05-24T12:16:50.481Z,624.38
2018-05-24T12:17:50.403Z,556.88
2018-05-24T12:18:50.311Z,393.75
2018-05-24T12:19:50.233Z,331.88
2018-05-24T12:20:50.143Z,326.25
2018-05-24T12:21:50.065Z,320.63
2018-05-24T12:22:49.985Z,320.63
2018-05-24T12:23:49.939Z,320.63
2018-05-24T12:24:49.805Z,320.63
2018-05-24T12:25:49.716Z,326.25
2018-05-24T12:26:49.624Z,331.88
2018-05-24T12:27:49.546Z,348.75
2018-05-24T12:28:49.454Z,427.50
2018-05-24T12:29:49.363Z,658.13
2018-05-24T12:30:49.274Z,826.88
2018-05-24T12:31:49.201Z,770.63